sensor_id;sensor_type;location;lat;lon;timestamp;temperature;humidity
51982;DHT22;37998;53.416;6.730;2024-01-25T00:00:28;7.70;99.90
51982;DHT22;37998;53.416;6.730;2024-01-25T00:02:54;7.70;99.90
51982;DHT22;37998;53.416;6.730;2024-01-25T00:05:19;7.60;99.90
51982;DHT22;37998;53.416;6.730;2024-01-25T00:07:49;7.70;99.90
51982;DHT22;37998;53.416;6.730;2024-01-25T00:10:16;7.70;99.90
51982;DHT22;37998;53.416;6.730;2024-01-25T00:12:43;7.60;99.90
51982;DHT22;37998;53.416;6.730;2024-01-25T00:15:10;7.60;99.90
51982;DHT22;37998;53.416;6.730;2024-01-25T00:17:36;7.60;99.90
51982;DHT22;37998;53.416;6.730;2024-01-25T00:20:03;7.60;99.90
51982;DHT22;37998;53.416;6.730;2024-01-25T00:22:30;7.60;99.90
51982;DHT22;37998;53.416;6.730;2024-01-25T00:24:56;7.60;99.90
51982;DHT22;37998;53.416;6.730;2024-01-25T00:27:22;7.50;99.90
51982;DHT22;37998;53.416;6.730;2024-01-25T00:29:47;7.50;99.90
51982;DHT22;37998;53.416;6.730;2024-01-25T00:32:13;7.50;99.90
51982;DHT22;37998;53.416;6.730;2024-01-25T00:34:42;7.50;99.90
51982;DHT22;37998;53.416;6.730;2024-01-25T00:37:08;7.90;99.90
51982;DHT22;37998;53.416;6.730;2024-01-25T00:39:34;7.50;99.90
51982;DHT22;37998;53.416;6.730;2024-01-25T00:42:04;7.50;99.90
51982;DHT22;37998;53.416;6.730;2024-01-25T00:44:32;7.50;99.90
51982;DHT22;37998;53.416;6.730;2024-01-25T00:46:58;7.50;99.90
51982;DHT22;37998;53.416;6.730;2024-01-25T00:49:24;7.50;99.90
51982;DHT22;37998;53.416;6.730;2024-01-25T00:51:58;7.50;99.90
51982;DHT22;37998;53.416;6.730;2024-01-25T00:54:24;7.50;99.90
51982;DHT22;37998;53.416;6.730;2024-01-25T00:56:50;7.50;99.90
51982;DHT22;37998;53.416;6.730;2024-01-25T00:59:19;7.50;99.90
51982;DHT22;37998;53.416;6.730;2024-01-25T01:01:47;7.50;99.90
51982;DHT22;37998;53.416;6.730;2024-01-25T01:04:14;7.40;99.90
51982;DHT22;37998;53.416;6.730;2024-01-25T01:06:41;7.40;99.90
51982;DHT22;37998;53.416;6.730;2024-01-25T01:09:06;7.40;99.90
51982;DHT22;37998;53.416;6.730;2024-01-25T01:11:33;7.40;99.90
51982;DHT22;37998;53.416;6.730;2024-01-25T01:13:59;7.30;99.90
51982;DHT22;37998;53.416;6.730;2024-01-25T01:16:26;7.30;99.90
51982;DHT22;37998;53.416;6.730;2024-01-25T01:18:51;7.30;99.90
51982;DHT22;37998;53.416;6.730;2024-01-25T01:21:17;7.30;99.90
51982;DHT22;37998;53.416;6.730;2024-01-25T01:23:43;7.40;99.90
51982;DHT22;37998;53.416;6.730;2024-01-25T01:26:09;6.90;99.90
51982;DHT22;37998;53.416;6.730;2024-01-25T01:28:36;7.30;99.90
51982;DHT22;37998;53.416;6.730;2024-01-25T01:31:02;7.30;99.90
51982;DHT22;37998;53.416;6.730;2024-01-25T01:33:28;7.30;99.90
51982;DHT22;37998;53.416;6.730;2024-01-25T01:35:54;7.20;99.90
51982;DHT22;37998;53.416;6.730;2024-01-25T01:38:20;7.20;99.90
51982;DHT22;37998;53.416;6.730;2024-01-25T01:40:46;7.20;99.90
51982;DHT22;37998;53.416;6.730;2024-01-25T01:43:19;7.20;99.90
51982;DHT22;37998;53.416;6.730;2024-01-25T01:45:45;7.10;99.90
51982;DHT22;37998;53.416;6.730;2024-01-25T01:48:14;7.10;99.90
51982;DHT22;37998;53.416;6.730;2024-01-25T01:50:40;7.00;99.90
51982;DHT22;37998;53.416;6.730;2024-01-25T01:53:10;7.00;99.90
51982;DHT22;37998;53.416;6.730;2024-01-25T01:55:36;7.00;99.90
51982;DHT22;37998;53.416;6.730;2024-01-25T01:58:03;7.00;99.90
51982;DHT22;37998;53.416;6.730;2024-01-25T02:00:30;7.00;99.90
51982;DHT22;37998;53.416;6.730;2024-01-25T02:02:59;7.00;99.90
51982;DHT22;37998;53.416;6.730;2024-01-25T02:05:25;7.10;99.90
51982;DHT22;37998;53.416;6.730;2024-01-25T02:07:52;7.10;99.90
51982;DHT22;37998;53.416;6.730;2024-01-25T02:10:19;7.10;99.90
51982;DHT22;37998;53.416;6.730;2024-01-25T02:12:45;7.00;99.90
51982;DHT22;37998;53.416;6.730;2024-01-25T02:15:11;7.10;99.90
51982;DHT22;37998;53.416;6.730;2024-01-25T02:17:37;7.10;99.90
51982;DHT22;37998;53.416;6.730;2024-01-25T02:20:04;7.10;99.90
51982;DHT22;37998;53.416;6.730;2024-01-25T02:22:30;7.90;99.90
51982;DHT22;37998;53.416;6.730;2024-01-25T02:24:56;7.10;99.90
51982;DHT22;37998;53.416;6.730;2024-01-25T02:27:22;7.10;99.90
51982;DHT22;37998;53.416;6.730;2024-01-25T02:29:50;7.10;99.90
51982;DHT22;37998;53.416;6.730;2024-01-25T02:32:16;7.10;99.90
51982;DHT22;37998;53.416;6.730;2024-01-25T02:34:42;7.00;99.90
51982;DHT22;37998;53.416;6.730;2024-01-25T02:37:07;7.00;99.90
51982;DHT22;37998;53.416;6.730;2024-01-25T02:39:33;7.10;99.90
51982;DHT22;37998;53.416;6.730;2024-01-25T02:41:59;7.10;99.90
51982;DHT22;37998;53.416;6.730;2024-01-25T02:44:25;7.10;99.90
51982;DHT22;37998;53.416;6.730;2024-01-25T02:46:51;7.00;99.90
51982;DHT22;37998;53.416;6.730;2024-01-25T02:49:17;7.00;99.90
51982;DHT22;37998;53.416;6.730;2024-01-25T02:51:44;7.00;99.90
51982;DHT22;37998;53.416;6.730;2024-01-25T02:54:13;7.00;99.90
51982;DHT22;37998;53.416;6.730;2024-01-25T02:56:38;7.00;99.90
51982;DHT22;37998;53.416;6.730;2024-01-25T02:59:04;7.00;99.90
51982;DHT22;37998;53.416;6.730;2024-01-25T03:01:41;6.90;99.90
51982;DHT22;37998;53.416;6.730;2024-01-25T03:04:08;7.00;99.90
51982;DHT22;37998;53.416;6.730;2024-01-25T03:06:33;6.90;99.90
51982;DHT22;37998;53.416;6.730;2024-01-25T03:08:59;6.80;99.90
51982;DHT22;37998;53.416;6.730;2024-01-25T03:11:25;6.90;99.90
51982;DHT22;37998;53.416;6.730;2024-01-25T03:13:51;6.80;99.90
51982;DHT22;37998;53.416;6.730;2024-01-25T03:16:17;6.80;99.90
51982;DHT22;37998;53.416;6.730;2024-01-25T03:18:46;6.80;99.90
51982;DHT22;37998;53.416;6.730;2024-01-25T03:21:12;6.80;99.90
51982;DHT22;37998;53.416;6.730;2024-01-25T03:23:38;6.70;99.90
51982;DHT22;37998;53.416;6.730;2024-01-25T03:26:04;6.70;99.90
51982;DHT22;37998;53.416;6.730;2024-01-25T03:28:30;6.60;99.90
51982;DHT22;37998;53.416;6.730;2024-01-25T03:30:56;6.60;99.90
51982;DHT22;37998;53.416;6.730;2024-01-25T03:33:22;6.60;99.90
51982;DHT22;37998;53.416;6.730;2024-01-25T03:35:48;6.60;99.90
51982;DHT22;37998;53.416;6.730;2024-01-25T03:38:14;6.50;99.90
51982;DHT22;37998;53.416;6.730;2024-01-25T03:40:40;6.50;99.90
51982;DHT22;37998;53.416;6.730;2024-01-25T03:43:06;6.50;99.90
51982;DHT22;37998;53.416;6.730;2024-01-25T03:45:31;6.50;99.90
51982;DHT22;37998;53.416;6.730;2024-01-25T03:47:58;6.50;99.90
51982;DHT22;37998;53.416;6.730;2024-01-25T03:50:26;6.50;99.90
51982;DHT22;37998;53.416;6.730;2024-01-25T03:52:52;6.50;99.90
51982;DHT22;37998;53.416;6.730;2024-01-25T03:55:18;6.50;99.90
51982;DHT22;37998;53.416;6.730;2024-01-25T03:57:44;6.50;99.90
51982;DHT22;37998;53.416;6.730;2024-01-25T04:00:20;6.50;99.90
51982;DHT22;37998;53.416;6.730;2024-01-25T04:02:46;6.50;99.90
51982;DHT22;37998;53.416;6.730;2024-01-25T04:05:11;6.50;99.90
51982;DHT22;37998;53.416;6.730;2024-01-25T04:07:37;6.60;99.90
51982;DHT22;37998;53.416;6.730;2024-01-25T04:10:06;6.50;99.90
51982;DHT22;37998;53.416;6.730;2024-01-25T04:12:32;6.40;99.90
51982;DHT22;37998;53.416;6.730;2024-01-25T04:14:59;6.40;99.90
51982;DHT22;37998;53.416;6.730;2024-01-25T04:17:25;6.50;99.90
51982;DHT22;37998;53.416;6.730;2024-01-25T04:19:51;6.50;99.90
51982;DHT22;37998;53.416;6.730;2024-01-25T04:22:17;6.40;99.90
51982;DHT22;37998;53.416;6.730;2024-01-25T04:24:43;6.50;99.90
51982;DHT22;37998;53.416;6.730;2024-01-25T04:27:10;6.40;99.90
51982;DHT22;37998;53.416;6.730;2024-01-25T04:29:40;6.40;99.90
51982;DHT22;37998;53.416;6.730;2024-01-25T04:32:07;6.40;99.90
51982;DHT22;37998;53.416;6.730;2024-01-25T04:34:38;6.30;99.90
51982;DHT22;37998;53.416;6.730;2024-01-25T04:37:04;6.30;99.90
51982;DHT22;37998;53.416;6.730;2024-01-25T04:39:30;6.30;99.90
51982;DHT22;37998;53.416;6.730;2024-01-25T04:41:57;6.30;99.90
51982;DHT22;37998;53.416;6.730;2024-01-25T04:44:22;6.30;99.90
51982;DHT22;37998;53.416;6.730;2024-01-25T04:46:48;6.30;99.90
51982;DHT22;37998;53.416;6.730;2024-01-25T04:49:14;6.30;99.90
51982;DHT22;37998;53.416;6.730;2024-01-25T04:51:40;6.30;99.90
51982;DHT22;37998;53.416;6.730;2024-01-25T04:54:06;6.20;99.90
51982;DHT22;37998;53.416;6.730;2024-01-25T04:56:34;6.20;99.90
51982;DHT22;37998;53.416;6.730;2024-01-25T04:59:00;6.20;99.90
51982;DHT22;37998;53.416;6.730;2024-01-25T05:01:26;6.20;99.90
51982;DHT22;37998;53.416;6.730;2024-01-25T05:03:52;6.20;99.90
51982;DHT22;37998;53.416;6.730;2024-01-25T05:06:18;6.20;99.90
51982;DHT22;37998;53.416;6.730;2024-01-25T05:08:43;6.20;99.90
51982;DHT22;37998;53.416;6.730;2024-01-25T05:11:09;6.20;99.90
51982;DHT22;37998;53.416;6.730;2024-01-25T05:13:35;6.20;99.90
51982;DHT22;37998;53.416;6.730;2024-01-25T05:16:01;6.20;99.90
51982;DHT22;37998;53.416;6.730;2024-01-25T05:18:27;6.20;99.90
51982;DHT22;37998;53.416;6.730;2024-01-25T05:20:53;6.20;99.90
51982;DHT22;37998;53.416;6.730;2024-01-25T05:23:19;6.10;99.90
51982;DHT22;37998;53.416;6.730;2024-01-25T05:25:45;6.10;99.90
51982;DHT22;37998;53.416;6.730;2024-01-25T05:28:11;6.10;99.90
51982;DHT22;37998;53.416;6.730;2024-01-25T05:30:37;6.10;99.90
51982;DHT22;37998;53.416;6.730;2024-01-25T05:33:03;6.10;99.90
51982;DHT22;37998;53.416;6.730;2024-01-25T05:35:29;6.10;99.90
51982;DHT22;37998;53.416;6.730;2024-01-25T05:37:55;6.10;99.90
51982;DHT22;37998;53.416;6.730;2024-01-25T05:40:21;6.80;99.90
51982;DHT22;37998;53.416;6.730;2024-01-25T05:42:47;6.10;99.90
51982;DHT22;37998;53.416;6.730;2024-01-25T05:45:13;6.10;99.90
51982;DHT22;37998;53.416;6.730;2024-01-25T05:47:39;6.10;99.90
51982;DHT22;37998;53.416;6.730;2024-01-25T05:50:05;6.10;99.90
51982;DHT22;37998;53.416;6.730;2024-01-25T05:52:33;6.00;99.90
51982;DHT22;37998;53.416;6.730;2024-01-25T05:55:02;6.00;99.90
51982;DHT22;37998;53.416;6.730;2024-01-25T05:57:28;6.00;99.90
51982;DHT22;37998;53.416;6.730;2024-01-25T05:59:54;6.00;99.90
51982;DHT22;37998;53.416;6.730;2024-01-25T06:02:22;6.00;99.90
51982;DHT22;37998;53.416;6.730;2024-01-25T06:04:47;6.00;99.90
51982;DHT22;37998;53.416;6.730;2024-01-25T06:07:13;6.00;99.90
51982;DHT22;37998;53.416;6.730;2024-01-25T06:09:39;6.00;99.90
51982;DHT22;37998;53.416;6.730;2024-01-25T06:12:05;5.90;99.90
51982;DHT22;37998;53.416;6.730;2024-01-25T06:14:31;5.90;99.90
51982;DHT22;37998;53.416;6.730;2024-01-25T06:16:57;5.90;99.90
51982;DHT22;37998;53.416;6.730;2024-01-25T06:19:22;5.90;99.90
51982;DHT22;37998;53.416;6.730;2024-01-25T06:21:49;5.90;99.90
51982;DHT22;37998;53.416;6.730;2024-01-25T06:24:15;5.80;99.90
51982;DHT22;37998;53.416;6.730;2024-01-25T06:26:41;5.80;99.90
51982;DHT22;37998;53.416;6.730;2024-01-25T06:29:07;5.80;99.90
51982;DHT22;37998;53.416;6.730;2024-01-25T06:31:36;5.80;99.90
51982;DHT22;37998;53.416;6.730;2024-01-25T06:34:05;5.80;99.90
51982;DHT22;37998;53.416;6.730;2024-01-25T06:36:31;5.70;99.90
51982;DHT22;37998;53.416;6.730;2024-01-25T06:38:57;5.70;99.90
51982;DHT22;37998;53.416;6.730;2024-01-25T06:41:23;5.70;99.90
51982;DHT22;37998;53.416;6.730;2024-01-25T06:43:49;5.70;99.90
51982;DHT22;37998;53.416;6.730;2024-01-25T06:46:15;5.60;99.90
51982;DHT22;37998;53.416;6.730;2024-01-25T06:48:41;5.60;99.90
51982;DHT22;37998;53.416;6.730;2024-01-25T06:51:07;5.60;99.90
51982;DHT22;37998;53.416;6.730;2024-01-25T06:53:33;5.60;99.90
51982;DHT22;37998;53.416;6.730;2024-01-25T06:55:59;5.60;99.90
51982;DHT22;37998;53.416;6.730;2024-01-25T06:58:25;5.60;99.90
51982;DHT22;37998;53.416;6.730;2024-01-25T07:00:51;5.60;99.90
51982;DHT22;37998;53.416;6.730;2024-01-25T07:03:18;5.60;99.90
51982;DHT22;37998;53.416;6.730;2024-01-25T07:05:44;5.60;99.90
51982;DHT22;37998;53.416;6.730;2024-01-25T07:08:10;5.60;99.90
51982;DHT22;37998;53.416;6.730;2024-01-25T07:10:40;5.60;99.90
51982;DHT22;37998;53.416;6.730;2024-01-25T07:13:09;5.50;99.90
51982;DHT22;37998;53.416;6.730;2024-01-25T07:15:35;5.50;99.90
51982;DHT22;37998;53.416;6.730;2024-01-25T07:18:01;5.60;99.90
51982;DHT22;37998;53.416;6.730;2024-01-25T07:20:27;5.50;99.90
51982;DHT22;37998;53.416;6.730;2024-01-25T07:22:53;5.50;99.90
51982;DHT22;37998;53.416;6.730;2024-01-25T07:25:19;5.50;99.90
51982;DHT22;37998;53.416;6.730;2024-01-25T07:27:45;5.50;99.90
51982;DHT22;37998;53.416;6.730;2024-01-25T07:30:13;5.40;99.90
51982;DHT22;37998;53.416;6.730;2024-01-25T07:32:39;5.50;99.90
51982;DHT22;37998;53.416;6.730;2024-01-25T07:35:10;5.50;99.90
51982;DHT22;37998;53.416;6.730;2024-01-25T07:37:37;6.60;99.90
51982;DHT22;37998;53.416;6.730;2024-01-25T07:40:03;5.60;99.90
51982;DHT22;37998;53.416;6.730;2024-01-25T07:42:32;5.50;99.90
51982;DHT22;37998;53.416;6.730;2024-01-25T07:44:58;5.50;99.90
51982;DHT22;37998;53.416;6.730;2024-01-25T07:47:24;5.50;99.90
51982;DHT22;37998;53.416;6.730;2024-01-25T07:49:50;5.50;99.90
51982;DHT22;37998;53.416;6.730;2024-01-25T07:52:15;5.50;99.90
51982;DHT22;37998;53.416;6.730;2024-01-25T07:54:41;5.40;99.90
51982;DHT22;37998;53.416;6.730;2024-01-25T07:57:07;5.50;99.90
51982;DHT22;37998;53.416;6.730;2024-01-25T07:59:33;5.40;99.90
51982;DHT22;37998;53.416;6.730;2024-01-25T08:01:59;5.40;99.90
51982;DHT22;37998;53.416;6.730;2024-01-25T08:04:25;5.50;99.90
51982;DHT22;37998;53.416;6.730;2024-01-25T08:06:52;5.40;99.90
51982;DHT22;37998;53.416;6.730;2024-01-25T08:09:18;5.50;99.90
51982;DHT22;37998;53.416;6.730;2024-01-25T08:11:44;5.60;99.90
51982;DHT22;37998;53.416;6.730;2024-01-25T08:14:10;5.60;99.90
51982;DHT22;37998;53.416;6.730;2024-01-25T08:16:37;5.60;99.90
51982;DHT22;37998;53.416;6.730;2024-01-25T08:19:03;5.60;99.90
51982;DHT22;37998;53.416;6.730;2024-01-25T08:21:30;5.40;99.90
51982;DHT22;37998;53.416;6.730;2024-01-25T08:23:56;5.30;99.90
51982;DHT22;37998;53.416;6.730;2024-01-25T08:26:25;5.20;99.90
51982;DHT22;37998;53.416;6.730;2024-01-25T08:28:51;5.10;99.90
51982;DHT22;37998;53.416;6.730;2024-01-25T08:31:17;5.00;99.90
51982;DHT22;37998;53.416;6.730;2024-01-25T08:33:43;5.00;99.90
51982;DHT22;37998;53.416;6.730;2024-01-25T08:36:16;5.00;99.90
51982;DHT22;37998;53.416;6.730;2024-01-25T08:38:42;5.00;99.90
51982;DHT22;37998;53.416;6.730;2024-01-25T08:41:08;5.10;99.90
51982;DHT22;37998;53.416;6.730;2024-01-25T08:43:36;5.20;99.90
51982;DHT22;37998;53.416;6.730;2024-01-25T08:46:02;5.20;99.90
51982;DHT22;37998;53.416;6.730;2024-01-25T08:48:28;5.30;99.90
51982;DHT22;37998;53.416;6.730;2024-01-25T08:50:54;5.30;99.90
51982;DHT22;37998;53.416;6.730;2024-01-25T08:53:20;5.30;99.90
51982;DHT22;37998;53.416;6.730;2024-01-25T08:55:48;5.40;99.90
51982;DHT22;37998;53.416;6.730;2024-01-25T08:58:14;5.40;99.90
51982;DHT22;37998;53.416;6.730;2024-01-25T09:00:40;5.50;99.90
51982;DHT22;37998;53.416;6.730;2024-01-25T09:03:06;5.40;99.90
51982;DHT22;37998;53.416;6.730;2024-01-25T09:05:31;5.50;99.90
51982;DHT22;37998;53.416;6.730;2024-01-25T09:08:00;5.50;99.90
51982;DHT22;37998;53.416;6.730;2024-01-25T09:10:26;5.50;99.90
51982;DHT22;37998;53.416;6.730;2024-01-25T09:12:52;5.50;99.90
51982;DHT22;37998;53.416;6.730;2024-01-25T09:15:17;5.50;99.90
51982;DHT22;37998;53.416;6.730;2024-01-25T09:17:43;5.50;99.90
51982;DHT22;37998;53.416;6.730;2024-01-25T09:20:10;5.60;99.90
51982;DHT22;37998;53.416;6.730;2024-01-25T09:22:36;5.60;99.90
51982;DHT22;37998;53.416;6.730;2024-01-25T09:25:04;5.60;99.90
51982;DHT22;37998;53.416;6.730;2024-01-25T09:27:29;5.70;99.90
51982;DHT22;37998;53.416;6.730;2024-01-25T09:29:55;5.70;99.90
51982;DHT22;37998;53.416;6.730;2024-01-25T09:32:21;5.80;99.90
51982;DHT22;37998;53.416;6.730;2024-01-25T09:34:47;5.80;99.90
51982;DHT22;37998;53.416;6.730;2024-01-25T09:37:13;5.70;99.90
51982;DHT22;37998;53.416;6.730;2024-01-25T09:39:40;5.70;99.90
51982;DHT22;37998;53.416;6.730;2024-01-25T09:42:07;5.70;99.90
51982;DHT22;37998;53.416;6.730;2024-01-25T09:44:33;5.70;99.90
51982;DHT22;37998;53.416;6.730;2024-01-25T09:47:04;5.80;99.90
51982;DHT22;37998;53.416;6.730;2024-01-25T09:49:31;5.80;99.90
51982;DHT22;37998;53.416;6.730;2024-01-25T09:51:57;5.80;99.90
51982;DHT22;37998;53.416;6.730;2024-01-25T09:54:24;5.80;99.90
51982;DHT22;37998;53.416;6.730;2024-01-25T09:56:51;5.50;99.90
51982;DHT22;37998;53.416;6.730;2024-01-25T09:59:19;5.80;99.90
51982;DHT22;37998;53.416;6.730;2024-01-25T10:01:46;5.90;99.90
51982;DHT22;37998;53.416;6.730;2024-01-25T10:04:14;5.90;99.90
51982;DHT22;37998;53.416;6.730;2024-01-25T10:06:41;5.90;99.90
51982;DHT22;37998;53.416;6.730;2024-01-25T10:09:07;6.00;99.90
51982;DHT22;37998;53.416;6.730;2024-01-25T10:11:35;6.10;99.90
51982;DHT22;37998;53.416;6.730;2024-01-25T10:14:01;6.20;99.90
51982;DHT22;37998;53.416;6.730;2024-01-25T10:16:27;6.20;99.90
51982;DHT22;37998;53.416;6.730;2024-01-25T10:18:53;6.30;99.90
51982;DHT22;37998;53.416;6.730;2024-01-25T10:21:19;6.40;99.90
51982;DHT22;37998;53.416;6.730;2024-01-25T10:23:46;6.50;99.90
51982;DHT22;37998;53.416;6.730;2024-01-25T10:26:12;6.50;99.90
51982;DHT22;37998;53.416;6.730;2024-01-25T10:28:38;6.50;99.90
51982;DHT22;37998;53.416;6.730;2024-01-25T10:31:04;6.60;99.90
51982;DHT22;37998;53.416;6.730;2024-01-25T10:33:31;6.60;99.90
51982;DHT22;37998;53.416;6.730;2024-01-25T10:35:58;6.60;99.90
51982;DHT22;37998;53.416;6.730;2024-01-25T10:38:34;6.70;99.90
51982;DHT22;37998;53.416;6.730;2024-01-25T10:41:03;6.70;99.90
51982;DHT22;37998;53.416;6.730;2024-01-25T10:43:29;6.80;99.90
51982;DHT22;37998;53.416;6.730;2024-01-25T10:45:59;6.80;99.90
51982;DHT22;37998;53.416;6.730;2024-01-25T10:48:25;6.90;99.90
51982;DHT22;37998;53.416;6.730;2024-01-25T10:50:55;7.00;99.90
51982;DHT22;37998;53.416;6.730;2024-01-25T10:53:23;7.00;99.90
51982;DHT22;37998;53.416;6.730;2024-01-25T10:55:49;7.00;99.90
51982;DHT22;37998;53.416;6.730;2024-01-25T10:58:16;7.00;99.90
51982;DHT22;37998;53.416;6.730;2024-01-25T11:00:58;7.00;99.90
51982;DHT22;37998;53.416;6.730;2024-01-25T11:03:29;7.10;99.90
51982;DHT22;37998;53.416;6.730;2024-01-25T11:06:09;7.20;99.90
51982;DHT22;37998;53.416;6.730;2024-01-25T11:08:36;7.20;99.90
51982;DHT22;37998;53.416;6.730;2024-01-25T11:11:07;7.10;99.90
51982;DHT22;37998;53.416;6.730;2024-01-25T11:13:35;7.10;99.90
51982;DHT22;37998;53.416;6.730;2024-01-25T11:16:14;7.60;99.90
51982;DHT22;37998;53.416;6.730;2024-01-25T11:18:56;7.10;99.90
51982;DHT22;37998;53.416;6.730;2024-01-25T11:21:42;7.10;99.90
51982;DHT22;37998;53.416;6.730;2024-01-25T11:26:42;7.10;99.90
51982;DHT22;37998;53.416;6.730;2024-01-25T11:29:08;7.20;99.90
51982;DHT22;37998;53.416;6.730;2024-01-25T11:31:34;7.20;99.90
51982;DHT22;37998;53.416;6.730;2024-01-25T11:34:01;7.30;99.90
51982;DHT22;37998;53.416;6.730;2024-01-25T11:36:27;7.30;99.90
51982;DHT22;37998;53.416;6.730;2024-01-25T11:38:53;7.40;99.90
51982;DHT22;37998;53.416;6.730;2024-01-25T11:41:20;7.40;99.90
51982;DHT22;37998;53.416;6.730;2024-01-25T11:43:48;7.40;99.90
51982;DHT22;37998;53.416;6.730;2024-01-25T11:46:14;7.30;99.90
51982;DHT22;37998;53.416;6.730;2024-01-25T11:48:43;7.40;99.90
51982;DHT22;37998;53.416;6.730;2024-01-25T11:51:10;7.40;99.90
51982;DHT22;37998;53.416;6.730;2024-01-25T11:53:37;7.40;99.90
51982;DHT22;37998;53.416;6.730;2024-01-25T11:56:05;7.50;99.90
51982;DHT22;37998;53.416;6.730;2024-01-25T11:58:32;7.50;99.90
51982;DHT22;37998;53.416;6.730;2024-01-25T12:00:58;7.50;99.90
51982;DHT22;37998;53.416;6.730;2024-01-25T12:03:25;7.50;99.90
51982;DHT22;37998;53.416;6.730;2024-01-25T12:05:52;7.50;99.90
51982;DHT22;37998;53.416;6.730;2024-01-25T12:08:18;7.50;99.90
51982;DHT22;37998;53.416;6.730;2024-01-25T12:10:44;7.50;99.90
51982;DHT22;37998;53.416;6.730;2024-01-25T12:13:10;7.50;99.90
51982;DHT22;37998;53.416;6.730;2024-01-25T12:15:40;7.50;99.90
51982;DHT22;37998;53.416;6.730;2024-01-25T12:18:07;7.50;99.90
51982;DHT22;37998;53.416;6.730;2024-01-25T12:20:35;7.50;99.90
51982;DHT22;37998;53.416;6.730;2024-01-25T12:23:01;7.50;99.90
51982;DHT22;37998;53.416;6.730;2024-01-25T12:25:27;7.50;99.90
51982;DHT22;37998;53.416;6.730;2024-01-25T12:27:53;7.50;99.90
51982;DHT22;37998;53.416;6.730;2024-01-25T12:30:19;7.50;99.90
51982;DHT22;37998;53.416;6.730;2024-01-25T12:32:48;7.50;99.90
51982;DHT22;37998;53.416;6.730;2024-01-25T12:35:14;7.50;99.90
51982;DHT22;37998;53.416;6.730;2024-01-25T12:37:40;7.50;99.90
51982;DHT22;37998;53.416;6.730;2024-01-25T12:40:07;7.50;99.90
51982;DHT22;37998;53.416;6.730;2024-01-25T12:42:33;7.60;99.90
51982;DHT22;37998;53.416;6.730;2024-01-25T12:44:59;7.50;99.90
51982;DHT22;37998;53.416;6.730;2024-01-25T12:47:25;7.50;99.90
51982;DHT22;37998;53.416;6.730;2024-01-25T12:49:51;7.60;99.90
51982;DHT22;37998;53.416;6.730;2024-01-25T12:52:17;7.60;99.90
51982;DHT22;37998;53.416;6.730;2024-01-25T12:54:43;7.60;99.90
51982;DHT22;37998;53.416;6.730;2024-01-25T12:57:09;7.60;99.90
51982;DHT22;37998;53.416;6.730;2024-01-25T12:59:37;7.60;99.90
51982;DHT22;37998;53.416;6.730;2024-01-25T13:02:04;7.70;99.90
51982;DHT22;37998;53.416;6.730;2024-01-25T13:04:31;7.70;99.90
51982;DHT22;37998;53.416;6.730;2024-01-25T13:06:57;7.70;99.90
51982;DHT22;37998;53.416;6.730;2024-01-25T13:09:23;7.80;99.90
51982;DHT22;37998;53.416;6.730;2024-01-25T13:11:50;7.80;99.90
51982;DHT22;37998;53.416;6.730;2024-01-25T13:14:17;7.90;99.90
51982;DHT22;37998;53.416;6.730;2024-01-25T13:16:43;7.90;99.90
51982;DHT22;37998;53.416;6.730;2024-01-25T13:19:10;8.00;99.90
51982;DHT22;37998;53.416;6.730;2024-01-25T13:21:37;8.00;99.90
51982;DHT22;37998;53.416;6.730;2024-01-25T13:24:04;8.10;99.90
51982;DHT22;37998;53.416;6.730;2024-01-25T13:26:30;8.10;99.90
51982;DHT22;37998;53.416;6.730;2024-01-25T13:28:55;8.10;99.90
51982;DHT22;37998;53.416;6.730;2024-01-25T13:31:21;8.10;99.90
51982;DHT22;37998;53.416;6.730;2024-01-25T13:33:47;8.10;99.90
51982;DHT22;37998;53.416;6.730;2024-01-25T13:36:13;8.10;99.90
51982;DHT22;37998;53.416;6.730;2024-01-25T13:38:43;8.10;99.90
51982;DHT22;37998;53.416;6.730;2024-01-25T13:41:08;8.10;99.90
51982;DHT22;37998;53.416;6.730;2024-01-25T13:43:34;8.00;99.90
51982;DHT22;37998;53.416;6.730;2024-01-25T13:46:03;8.10;99.90
51982;DHT22;37998;53.416;6.730;2024-01-25T13:48:29;8.10;99.90
51982;DHT22;37998;53.416;6.730;2024-01-25T13:50:55;8.10;99.90
51982;DHT22;37998;53.416;6.730;2024-01-25T13:53:21;8.10;99.90
51982;DHT22;37998;53.416;6.730;2024-01-25T13:55:47;8.10;99.90
51982;DHT22;37998;53.416;6.730;2024-01-25T13:58:13;8.20;99.90
51982;DHT22;37998;53.416;6.730;2024-01-25T14:00:39;8.20;99.90
51982;DHT22;37998;53.416;6.730;2024-01-25T14:03:05;8.10;99.90
51982;DHT22;37998;53.416;6.730;2024-01-25T14:05:32;8.20;99.90
51982;DHT22;37998;53.416;6.730;2024-01-25T14:07:58;8.10;99.90
51982;DHT22;37998;53.416;6.730;2024-01-25T14:10:25;8.10;99.90
51982;DHT22;37998;53.416;6.730;2024-01-25T14:12:53;8.10;99.90
51982;DHT22;37998;53.416;6.730;2024-01-25T14:15:19;8.10;99.90
51982;DHT22;37998;53.416;6.730;2024-01-25T14:17:45;8.00;99.90
51982;DHT22;37998;53.416;6.730;2024-01-25T14:20:11;8.00;99.90
51982;DHT22;37998;53.416;6.730;2024-01-25T14:22:38;8.00;99.90
51982;DHT22;37998;53.416;6.730;2024-01-25T14:25:04;8.00;99.90
51982;DHT22;37998;53.416;6.730;2024-01-25T14:27:30;8.00;99.90
51982;DHT22;37998;53.416;6.730;2024-01-25T14:29:56;8.10;99.90
51982;DHT22;37998;53.416;6.730;2024-01-25T14:32:22;8.10;99.90
51982;DHT22;37998;53.416;6.730;2024-01-25T14:34:48;8.10;99.90
51982;DHT22;37998;53.416;6.730;2024-01-25T14:37:14;8.10;99.90
51982;DHT22;37998;53.416;6.730;2024-01-25T14:39:40;8.10;99.90
51982;DHT22;37998;53.416;6.730;2024-01-25T14:42:10;8.10;99.90
51982;DHT22;37998;53.416;6.730;2024-01-25T14:44:42;8.10;99.90
51982;DHT22;37998;53.416;6.730;2024-01-25T14:47:08;8.00;99.90
51982;DHT22;37998;53.416;6.730;2024-01-25T14:49:34;8.00;99.90
51982;DHT22;37998;53.416;6.730;2024-01-25T14:52:00;7.90;99.90
51982;DHT22;37998;53.416;6.730;2024-01-25T14:54:26;7.90;99.90
51982;DHT22;37998;53.416;6.730;2024-01-25T14:56:52;7.90;99.90
51982;DHT22;37998;53.416;6.730;2024-01-25T14:59:18;7.90;99.90
51982;DHT22;37998;53.416;6.730;2024-01-25T15:01:47;7.90;99.90
51982;DHT22;37998;53.416;6.730;2024-01-25T15:04:13;7.80;99.90
51982;DHT22;37998;53.416;6.730;2024-01-25T15:06:42;7.80;99.90
51982;DHT22;37998;53.416;6.730;2024-01-25T15:09:08;7.80;99.90
51982;DHT22;37998;53.416;6.730;2024-01-25T15:11:33;7.80;99.90
51982;DHT22;37998;53.416;6.730;2024-01-25T15:13:59;7.70;99.90
51982;DHT22;37998;53.416;6.730;2024-01-25T15:16:25;7.70;99.90
51982;DHT22;37998;53.416;6.730;2024-01-25T15:18:51;7.70;99.90
51982;DHT22;37998;53.416;6.730;2024-01-25T15:21:17;7.70;99.90
51982;DHT22;37998;53.416;6.730;2024-01-25T15:23:43;7.60;99.90
51982;DHT22;37998;53.416;6.730;2024-01-25T15:26:09;7.60;99.90
51982;DHT22;37998;53.416;6.730;2024-01-25T15:28:37;7.60;99.90
51982;DHT22;37998;53.416;6.730;2024-01-25T15:31:03;7.60;99.90
51982;DHT22;37998;53.416;6.730;2024-01-25T15:33:29;7.50;99.90
51982;DHT22;37998;53.416;6.730;2024-01-25T15:35:55;7.50;99.90
51982;DHT22;37998;53.416;6.730;2024-01-25T15:38:21;7.50;99.90
51982;DHT22;37998;53.416;6.730;2024-01-25T15:40:47;7.50;99.90
51982;DHT22;37998;53.416;6.730;2024-01-25T15:43:13;7.50;99.90